sensor_id;sensor_type;location;lat;lon;timestamp;P1;durP1;ratioP1;P2;durP2;ratioP2
7104;SDS011;3594;42.152;24.714;2023-05-10T00:02:10;4.55;;;2.90;;
7104;SDS011;3594;42.152;24.714;2023-05-10T00:04:36;4.38;;;3.03;;
7104;SDS011;3594;42.152;24.714;2023-05-10T00:07:01;4.43;;;2.97;;
7104;SDS011;3594;42.152;24.714;2023-05-10T00:09:26;4.57;;;2.85;;
7104;SDS011;3594;42.152;24.714;2023-05-10T00:11:52;4.00;;;2.88;;
7104;SDS011;3594;42.152;24.714;2023-05-10T00:14:17;6.30;;;3.42;;
7104;SDS011;3594;42.152;24.714;2023-05-10T00:16:43;6.95;;;3.10;;
7104;SDS011;3594;42.152;24.714;2023-05-10T00:19:09;7.45;;;3.15;;
7104;SDS011;3594;42.152;24.714;2023-05-10T00:21:34;4.18;;;3.00;;
7104;SDS011;3594;42.152;24.714;2023-05-10T00:24:00;4.45;;;3.00;;
7104;SDS011;3594;42.152;24.714;2023-05-10T00:26:25;4.63;;;3.13;;
7104;SDS011;3594;42.152;24.714;2023-05-10T00:28:51;4.80;;;2.95;;
7104;SDS011;3594;42.152;24.714;2023-05-10T00:31:16;6.32;;;3.75;;
7104;SDS011;3594;42.152;24.714;2023-05-10T00:33:42;5.20;;;3.45;;
7104;SDS011;3594;42.152;24.714;2023-05-10T00:36:07;5.15;;;3.13;;
7104;SDS011;3594;42.152;24.714;2023-05-10T00:38:33;5.78;;;3.50;;
7104;SDS011;3594;42.152;24.714;2023-05-10T00:40:58;5.40;;;3.40;;
7104;SDS011;3594;42.152;24.714;2023-05-10T00:43:24;6.22;;;3.63;;
7104;SDS011;3594;42.152;24.714;2023-05-10T00:45:49;5.70;;;3.75;;
7104;SDS011;3594;42.152;24.714;2023-05-10T00:48:15;5.32;;;3.35;;
7104;SDS011;3594;42.152;24.714;2023-05-10T00:50:40;6.47;;;3.50;;
7104;SDS011;3594;42.152;24.714;2023-05-10T00:53:06;5.25;;;3.72;;
7104;SDS011;3594;42.152;24.714;2023-05-10T00:55:35;6.60;;;3.83;;
7104;SDS011;3594;42.152;24.714;2023-05-10T00:58:04;5.80;;;3.72;;
7104;SDS011;3594;42.152;24.714;2023-05-10T01:00:29;4.60;;;3.33;;
7104;SDS011;3594;42.152;24.714;2023-05-10T01:02:55;4.47;;;3.40;;
7104;SDS011;3594;42.152;24.714;2023-05-10T01:05:21;5.20;;;3.25;;
7104;SDS011;3594;42.152;24.714;2023-05-10T01:07:46;6.63;;;4.05;;
7104;SDS011;3594;42.152;24.714;2023-05-10T01:10:12;7.75;;;3.78;;
7104;SDS011;3594;42.152;24.714;2023-05-10T01:12:38;4.38;;;3.28;;
7104;SDS011;3594;42.152;24.714;2023-05-10T01:15:06;6.85;;;3.70;;
7104;SDS011;3594;42.152;24.714;2023-05-10T01:17:34;5.25;;;3.00;;
7104;SDS011;3594;42.152;24.714;2023-05-10T01:20:02;6.43;;;4.15;;
7104;SDS011;3594;42.152;24.714;2023-05-10T01:22:35;8.73;;;3.83;;
7104;SDS011;3594;42.152;24.714;2023-05-10T01:25:15;14.03;;;4.50;;
7104;SDS011;3594;42.152;24.714;2023-05-10T01:28:14;6.67;;;4.50;;
7104;SDS011;3594;42.152;24.714;2023-05-10T01:41:17;6.93;;;4.82;;
7104;SDS011;3594;42.152;24.714;2023-05-10T01:46:27;11.00;;;5.63;;
7104;SDS011;3594;42.152;24.714;2023-05-10T01:48:58;8.82;;;5.32;;
7104;SDS011;3594;42.152;24.714;2023-05-10T01:51:27;7.77;;;5.37;;
7104;SDS011;3594;42.152;24.714;2023-05-10T01:54:02;7.75;;;4.97;;
7104;SDS011;3594;42.152;24.714;2023-05-10T01:56:29;12.40;;;5.47;;
7104;SDS011;3594;42.152;24.714;2023-05-10T01:58:57;7.10;;;4.28;;
7104;SDS011;3594;42.152;24.714;2023-05-10T02:01:24;5.78;;;4.10;;
7104;SDS011;3594;42.152;24.714;2023-05-10T02:03:51;10.18;;;4.55;;
7104;SDS011;3594;42.152;24.714;2023-05-10T02:06:20;8.38;;;4.50;;
7104;SDS011;3594;42.152;24.714;2023-05-10T02:08:49;9.63;;;4.70;;
7104;SDS011;3594;42.152;24.714;2023-05-10T02:11:16;12.13;;;4.70;;
7104;SDS011;3594;42.152;24.714;2023-05-10T02:13:43;8.80;;;3.90;;
7104;SDS011;3594;42.152;24.714;2023-05-10T02:16:13;8.75;;;4.82;;
7104;SDS011;3594;42.152;24.714;2023-05-10T02:18:41;6.80;;;3.87;;
7104;SDS011;3594;42.152;24.714;2023-05-10T02:21:06;6.93;;;4.35;;
7104;SDS011;3594;42.152;24.714;2023-05-10T02:23:33;5.87;;;4.00;;
7104;SDS011;3594;42.152;24.714;2023-05-10T02:26:00;5.20;;;3.57;;
7104;SDS011;3594;42.152;24.714;2023-05-10T02:28:27;9.15;;;4.30;;
7104;SDS011;3594;42.152;24.714;2023-05-10T02:30:54;7.47;;;4.30;;
7104;SDS011;3594;42.152;24.714;2023-05-10T02:33:20;5.23;;;3.63;;
7104;SDS011;3594;42.152;24.714;2023-05-10T02:35:47;6.40;;;4.10;;
7104;SDS011;3594;42.152;24.714;2023-05-10T02:38:13;6.27;;;4.03;;
7104;SDS011;3594;42.152;24.714;2023-05-10T02:40:40;6.80;;;4.27;;
7104;SDS011;3594;42.152;24.714;2023-05-10T02:43:07;5.15;;;3.92;;
7104;SDS011;3594;42.152;24.714;2023-05-10T02:45:37;4.90;;;3.90;;
7104;SDS011;3594;42.152;24.714;2023-05-10T02:48:04;7.47;;;4.20;;
7104;SDS011;3594;42.152;24.714;2023-05-10T02:50:31;7.00;;;3.87;;
7104;SDS011;3594;42.152;24.714;2023-05-10T02:53:01;9.80;;;4.30;;
7104;SDS011;3594;42.152;24.714;2023-05-10T02:55:35;6.93;;;4.30;;
7104;SDS011;3594;42.152;24.714;2023-05-10T02:58:03;6.47;;;4.17;;
7104;SDS011;3594;42.152;24.714;2023-05-10T03:00:28;7.33;;;4.30;;
7104;SDS011;3594;42.152;24.714;2023-05-10T03:02:54;6.03;;;4.33;;
7104;SDS011;3594;42.152;24.714;2023-05-10T03:05:20;11.03;;;4.57;;
7104;SDS011;3594;42.152;24.714;2023-05-10T03:07:45;8.20;;;4.40;;
7104;SDS011;3594;42.152;24.714;2023-05-10T03:10:12;6.27;;;4.00;;
7104;SDS011;3594;42.152;24.714;2023-05-10T03:18:28;6.57;;;4.23;;
7104;SDS011;3594;42.152;24.714;2023-05-10T03:21:02;8.87;;;4.47;;
7104;SDS011;3594;42.152;24.714;2023-05-10T03:23:40;9.93;;;4.03;;
7104;SDS011;3594;42.152;24.714;2023-05-10T03:26:08;7.33;;;4.13;;
7104;SDS011;3594;42.152;24.714;2023-05-10T03:28:34;9.43;;;4.37;;
7104;SDS011;3594;42.152;24.714;2023-05-10T03:31:00;7.70;;;4.60;;
7104;SDS011;3594;42.152;24.714;2023-05-10T03:33:27;7.30;;;4.80;;
7104;SDS011;3594;42.152;24.714;2023-05-10T03:35:52;7.10;;;4.40;;
7104;SDS011;3594;42.152;24.714;2023-05-10T03:38:18;7.77;;;4.70;;
7104;SDS011;3594;42.152;24.714;2023-05-10T03:40:49;6.50;;;4.37;;
7104;SDS011;3594;42.152;24.714;2023-05-10T03:43:15;6.13;;;4.37;;
7104;SDS011;3594;42.152;24.714;2023-05-10T03:45:40;9.00;;;4.43;;
7104;SDS011;3594;42.152;24.714;2023-05-10T03:48:05;6.97;;;4.83;;
7104;SDS011;3594;42.152;24.714;2023-05-10T03:50:31;5.67;;;4.00;;
7104;SDS011;3594;42.152;24.714;2023-05-10T03:52:56;8.17;;;4.80;;
7104;SDS011;3594;42.152;24.714;2023-05-10T03:55:22;7.37;;;4.70;;
7104;SDS011;3594;42.152;24.714;2023-05-10T03:57:48;6.80;;;4.40;;
7104;SDS011;3594;42.152;24.714;2023-05-10T04:00:14;7.67;;;4.60;;
7104;SDS011;3594;42.152;24.714;2023-05-10T04:02:40;6.50;;;4.20;;
7104;SDS011;3594;42.152;24.714;2023-05-10T04:05:05;7.37;;;4.47;;
7104;SDS011;3594;42.152;24.714;2023-05-10T04:07:31;7.97;;;4.17;;
7104;SDS011;3594;42.152;24.714;2023-05-10T04:09:56;6.73;;;4.10;;
7104;SDS011;3594;42.152;24.714;2023-05-10T04:12:22;8.23;;;4.37;;
7104;SDS011;3594;42.152;24.714;2023-05-10T04:14:47;9.23;;;4.10;;
7104;SDS011;3594;42.152;24.714;2023-05-10T04:17:25;9.37;;;5.17;;
7104;SDS011;3594;42.152;24.714;2023-05-10T04:19:56;10.43;;;4.40;;
7104;SDS011;3594;42.152;24.714;2023-05-10T04:22:21;11.90;;;4.20;;
7104;SDS011;3594;42.152;24.714;2023-05-10T04:24:47;8.27;;;4.77;;
7104;SDS011;3594;42.152;24.714;2023-05-10T04:27:12;7.80;;;4.40;;
7104;SDS011;3594;42.152;24.714;2023-05-10T04:29:37;8.30;;;4.47;;
7104;SDS011;3594;42.152;24.714;2023-05-10T04:32:03;8.53;;;4.73;;
7104;SDS011;3594;42.152;24.714;2023-05-10T04:34:28;6.55;;;4.13;;
7104;SDS011;3594;42.152;24.714;2023-05-10T04:36:54;9.45;;;4.93;;
7104;SDS011;3594;42.152;24.714;2023-05-10T04:39:19;12.80;;;4.63;;
7104;SDS011;3594;42.152;24.714;2023-05-10T04:41:45;8.55;;;5.00;;
7104;SDS011;3594;42.152;24.714;2023-05-10T04:44:10;10.02;;;4.80;;
7104;SDS011;3594;42.152;24.714;2023-05-10T04:46:35;8.55;;;4.35;;
7104;SDS011;3594;42.152;24.714;2023-05-10T04:49:01;6.70;;;4.18;;
7104;SDS011;3594;42.152;24.714;2023-05-10T04:51:26;11.60;;;4.53;;
7104;SDS011;3594;42.152;24.714;2023-05-10T04:53:52;6.57;;;3.45;;
7104;SDS011;3594;42.152;24.714;2023-05-10T04:56:17;7.03;;;4.22;;
7104;SDS011;3594;42.152;24.714;2023-05-10T04:58:42;10.60;;;4.72;;
7104;SDS011;3594;42.152;24.714;2023-05-10T05:01:08;7.30;;;4.25;;
7104;SDS011;3594;42.152;24.714;2023-05-10T05:03:35;5.15;;;3.53;;
7104;SDS011;3594;42.152;24.714;2023-05-10T05:06:01;6.68;;;4.15;;
7104;SDS011;3594;42.152;24.714;2023-05-10T05:08:27;5.57;;;3.55;;
7104;SDS011;3594;42.152;24.714;2023-05-10T05:10:53;9.10;;;3.72;;
7104;SDS011;3594;42.152;24.714;2023-05-10T05:13:18;5.80;;;3.95;;
7104;SDS011;3594;42.152;24.714;2023-05-10T05:15:44;5.72;;;3.88;;
7104;SDS011;3594;42.152;24.714;2023-05-10T05:18:09;4.72;;;3.63;;
7104;SDS011;3594;42.152;24.714;2023-05-10T05:20:34;6.57;;;3.47;;
7104;SDS011;3594;42.152;24.714;2023-05-10T05:23:00;10.15;;;3.88;;
7104;SDS011;3594;42.152;24.714;2023-05-10T05:25:26;9.82;;;4.35;;
7104;SDS011;3594;42.152;24.714;2023-05-10T05:27:51;7.18;;;4.07;;
7104;SDS011;3594;42.152;24.714;2023-05-10T05:30:17;8.55;;;4.20;;
7104;SDS011;3594;42.152;24.714;2023-05-10T05:32:42;6.63;;;4.00;;
7104;SDS011;3594;42.152;24.714;2023-05-10T05:35:08;8.23;;;4.03;;
7104;SDS011;3594;42.152;24.714;2023-05-10T05:37:33;8.27;;;3.70;;
7104;SDS011;3594;42.152;24.714;2023-05-10T05:39:59;7.57;;;3.75;;
7104;SDS011;3594;42.152;24.714;2023-05-10T05:42:26;5.88;;;3.78;;
7104;SDS011;3594;42.152;24.714;2023-05-10T05:44:51;7.68;;;3.95;;
7104;SDS011;3594;42.152;24.714;2023-05-10T05:47:17;6.80;;;3.80;;
7104;SDS011;3594;42.152;24.714;2023-05-10T05:49:42;7.50;;;3.65;;
7104;SDS011;3594;42.152;24.714;2023-05-10T05:52:10;6.03;;;3.80;;
7104;SDS011;3594;42.152;24.714;2023-05-10T05:54:36;6.05;;;3.33;;
7104;SDS011;3594;42.152;24.714;2023-05-10T05:57:01;5.55;;;3.88;;
7104;SDS011;3594;42.152;24.714;2023-05-10T05:59:27;4.65;;;3.38;;
7104;SDS011;3594;42.152;24.714;2023-05-10T06:01:53;6.68;;;3.53;;
7104;SDS011;3594;42.152;24.714;2023-05-10T06:04:18;5.80;;;3.75;;
7104;SDS011;3594;42.152;24.714;2023-05-10T06:06:44;5.53;;;3.35;;
7104;SDS011;3594;42.152;24.714;2023-05-10T06:09:09;5.50;;;3.35;;
7104;SDS011;3594;42.152;24.714;2023-05-10T06:11:36;8.48;;;3.67;;
7104;SDS011;3594;42.152;24.714;2023-05-10T06:14:02;7.78;;;4.10;;
7104;SDS011;3594;42.152;24.714;2023-05-10T06:16:29;6.97;;;3.60;;
7104;SDS011;3594;42.152;24.714;2023-05-10T06:18:55;4.70;;;3.67;;
7104;SDS011;3594;42.152;24.714;2023-05-10T06:21:20;6.57;;;3.25;;
7104;SDS011;3594;42.152;24.714;2023-05-10T06:23:46;5.57;;;4.00;;
7104;SDS011;3594;42.152;24.714;2023-05-10T06:26:11;4.45;;;3.45;;
7104;SDS011;3594;42.152;24.714;2023-05-10T06:28:37;8.75;;;3.80;;
7104;SDS011;3594;42.152;24.714;2023-05-10T06:31:05;5.90;;;3.40;;
7104;SDS011;3594;42.152;24.714;2023-05-10T06:33:31;5.15;;;3.47;;
7104;SDS011;3594;42.152;24.714;2023-05-10T06:35:57;7.93;;;3.75;;
7104;SDS011;3594;42.152;24.714;2023-05-10T06:38:22;8.10;;;3.83;;
7104;SDS011;3594;42.152;24.714;2023-05-10T06:40:48;5.47;;;3.45;;
7104;SDS011;3594;42.152;24.714;2023-05-10T06:43:13;5.32;;;3.50;;
7104;SDS011;3594;42.152;24.714;2023-05-10T06:45:39;6.45;;;3.83;;
7104;SDS011;3594;42.152;24.714;2023-05-10T06:48:05;7.35;;;4.03;;
7104;SDS011;3594;42.152;24.714;2023-05-10T06:50:31;6.05;;;3.20;;
7104;SDS011;3594;42.152;24.714;2023-05-10T06:52:57;6.10;;;3.60;;
7104;SDS011;3594;42.152;24.714;2023-05-10T06:55:22;7.25;;;3.75;;
7104;SDS011;3594;42.152;24.714;2023-05-10T06:57:48;4.03;;;3.03;;
7104;SDS011;3594;42.152;24.714;2023-05-10T07:00:14;6.60;;;3.53;;
7104;SDS011;3594;42.152;24.714;2023-05-10T07:02:40;6.65;;;3.45;;
7104;SDS011;3594;42.152;24.714;2023-05-10T07:05:05;5.57;;;3.80;;
7104;SDS011;3594;42.152;24.714;2023-05-10T07:07:31;5.80;;;3.42;;
7104;SDS011;3594;42.152;24.714;2023-05-10T07:09:57;5.75;;;3.60;;
7104;SDS011;3594;42.152;24.714;2023-05-10T07:12:23;5.10;;;3.33;;
7104;SDS011;3594;42.152;24.714;2023-05-10T07:14:49;5.05;;;3.38;;
7104;SDS011;3594;42.152;24.714;2023-05-10T07:17:14;4.97;;;3.30;;
7104;SDS011;3594;42.152;24.714;2023-05-10T07:19:40;5.82;;;3.63;;
7104;SDS011;3594;42.152;24.714;2023-05-10T07:22:05;4.70;;;3.10;;
7104;SDS011;3594;42.152;24.714;2023-05-10T07:24:31;5.35;;;3.20;;
7104;SDS011;3594;42.152;24.714;2023-05-10T07:26:58;5.15;;;3.13;;
7104;SDS011;3594;42.152;24.714;2023-05-10T07:29:23;7.50;;;3.10;;
7104;SDS011;3594;42.152;24.714;2023-05-10T07:31:48;4.47;;;2.90;;
7104;SDS011;3594;42.152;24.714;2023-05-10T07:34:14;5.45;;;3.58;;
7104;SDS011;3594;42.152;24.714;2023-05-10T07:36:39;4.50;;;3.22;;
7104;SDS011;3594;42.152;24.714;2023-05-10T07:39:04;4.18;;;3.20;;
7104;SDS011;3594;42.152;24.714;2023-05-10T07:41:30;5.07;;;3.40;;
7104;SDS011;3594;42.152;24.714;2023-05-10T07:43:55;7.35;;;3.70;;
7104;SDS011;3594;42.152;24.714;2023-05-10T07:46:21;6.47;;;3.58;;
7104;SDS011;3594;42.152;24.714;2023-05-10T07:48:46;4.63;;;3.67;;
7104;SDS011;3594;42.152;24.714;2023-05-10T07:51:12;4.68;;;3.22;;
7104;SDS011;3594;42.152;24.714;2023-05-10T07:53:37;5.38;;;3.55;;
7104;SDS011;3594;42.152;24.714;2023-05-10T07:56:48;4.82;;;3.20;;
7104;SDS011;3594;42.152;24.714;2023-05-10T07:58:54;4.97;;;3.13;;
7104;SDS011;3594;42.152;24.714;2023-05-10T08:01:21;5.18;;;3.17;;
7104;SDS011;3594;42.152;24.714;2023-05-10T08:03:47;5.90;;;3.33;;
7104;SDS011;3594;42.152;24.714;2023-05-10T08:06:14;4.50;;;3.10;;
7104;SDS011;3594;42.152;24.714;2023-05-10T08:08:40;5.95;;;3.08;;
7104;SDS011;3594;42.152;24.714;2023-05-10T08:11:06;4.30;;;2.90;;
7104;SDS011;3594;42.152;24.714;2023-05-10T08:13:32;4.55;;;2.67;;
7104;SDS011;3594;42.152;24.714;2023-05-10T08:15:57;4.45;;;3.00;;
7104;SDS011;3594;42.152;24.714;2023-05-10T08:18:23;4.90;;;3.17;;
7104;SDS011;3594;42.152;24.714;2023-05-10T08:20:48;4.78;;;3.00;;
7104;SDS011;3594;42.152;24.714;2023-05-10T08:23:13;4.60;;;3.00;;
7104;SDS011;3594;42.152;24.714;2023-05-10T08:25:39;5.47;;;3.13;;
7104;SDS011;3594;42.152;24.714;2023-05-10T08:28:04;5.00;;;3.00;;
7104;SDS011;3594;42.152;24.714;2023-05-10T08:30:30;3.80;;;3.03;;
7104;SDS011;3594;42.152;24.714;2023-05-10T08:32:55;5.05;;;2.72;;
7104;SDS011;3594;42.152;24.714;2023-05-10T08:35:21;6.82;;;3.13;;
7104;SDS011;3594;42.152;24.714;2023-05-10T08:37:46;3.30;;;2.45;;
7104;SDS011;3594;42.152;24.714;2023-05-10T08:40:11;5.97;;;3.10;;
7104;SDS011;3594;42.152;24.714;2023-05-10T08:42:39;4.38;;;2.97;;
7104;SDS011;3594;42.152;24.714;2023-05-10T08:45:08;6.07;;;3.00;;
7104;SDS011;3594;42.152;24.714;2023-05-10T08:47:36;5.00;;;3.05;;
7104;SDS011;3594;42.152;24.714;2023-05-10T08:50:02;5.53;;;2.65;;
7104;SDS011;3594;42.152;24.714;2023-05-10T08:52:29;3.70;;;2.75;;
7104;SDS011;3594;42.152;24.714;2023-05-10T08:54:56;3.58;;;2.67;;
7104;SDS011;3594;42.152;24.714;2023-05-10T08:57:21;4.13;;;2.83;;
7104;SDS011;3594;42.152;24.714;2023-05-10T08:59:47;4.22;;;2.75;;
7104;SDS011;3594;42.152;24.714;2023-05-10T09:02:13;5.97;;;3.20;;
7104;SDS011;3594;42.152;24.714;2023-05-10T09:04:39;6.05;;;2.70;;
7104;SDS011;3594;42.152;24.714;2023-05-10T09:07:05;3.88;;;2.80;;
7104;SDS011;3594;42.152;24.714;2023-05-10T09:09:31;5.07;;;3.17;;
7104;SDS011;3594;42.152;24.714;2023-05-10T09:11:58;4.30;;;2.95;;
7104;SDS011;3594;42.152;24.714;2023-05-10T09:14:23;4.97;;;3.35;;
7104;SDS011;3594;42.152;24.714;2023-05-10T09:16:50;6.10;;;3.33;;
7104;SDS011;3594;42.152;24.714;2023-05-10T09:19:15;4.05;;;3.10;;
7104;SDS011;3594;42.152;24.714;2023-05-10T09:21:41;6.00;;;2.72;;
7104;SDS011;3594;42.152;24.714;2023-05-10T09:24:07;4.07;;;2.88;;
7104;SDS011;3594;42.152;24.714;2023-05-10T09:26:33;7.15;;;3.35;;
7104;SDS011;3594;42.152;24.714;2023-05-10T09:29:00;5.05;;;3.30;;
7104;SDS011;3594;42.152;24.714;2023-05-10T09:34:29;3.90;;;2.72;;
7104;SDS011;3594;42.152;24.714;2023-05-10T09:36:57;4.20;;;3.25;;
7104;SDS011;3594;42.152;24.714;2023-05-10T09:39:32;4.95;;;3.05;;
7104;SDS011;3594;42.152;24.714;2023-05-10T09:41:59;5.15;;;2.90;;
7104;SDS011;3594;42.152;24.714;2023-05-10T09:44:30;5.13;;;2.90;;
7104;SDS011;3594;42.152;24.714;2023-05-10T09:46:57;4.03;;;3.03;;
7104;SDS011;3594;42.152;24.714;2023-05-10T09:49:23;5.55;;;3.17;;
7104;SDS011;3594;42.152;24.714;2023-05-10T09:52:05;3.80;;;3.17;;
7104;SDS011;3594;42.152;24.714;2023-05-10T09:54:32;4.15;;;2.97;;
7104;SDS011;3594;42.152;24.714;2023-05-10T09:57:04;5.00;;;3.22;;
7104;SDS011;3594;42.152;24.714;2023-05-10T09:59:30;4.95;;;3.20;;
7104;SDS011;3594;42.152;24.714;2023-05-10T10:01:59;4.70;;;3.33;;
7104;SDS011;3594;42.152;24.714;2023-05-10T10:04:25;4.30;;;3.20;;
7104;SDS011;3594;42.152;24.714;2023-05-10T10:07:01;4.65;;;3.05;;
7104;SDS011;3594;42.152;24.714;2023-05-10T10:09:28;4.20;;;3.00;;
7104;SDS011;3594;42.152;24.714;2023-05-10T10:11:53;4.53;;;3.00;;
7104;SDS011;3594;42.152;24.714;2023-05-10T10:14:19;4.53;;;3.08;;
7104;SDS011;3594;42.152;24.714;2023-05-10T10:16:45;5.13;;;3.20;;
7104;SDS011;3594;42.152;24.714;2023-05-10T10:19:11;4.63;;;3.00;;
7104;SDS011;3594;42.152;24.714;2023-05-10T10:21:37;5.22;;;3.20;;
7104;SDS011;3594;42.152;24.714;2023-05-10T10:24:02;5.13;;;3.17;;
7104;SDS011;3594;42.152;24.714;2023-05-10T10:26:30;5.57;;;2.92;;
7104;SDS011;3594;42.152;24.714;2023-05-10T10:31:34;4.57;;;2.78;;
7104;SDS011;3594;42.152;24.714;2023-05-10T10:34:10;3.85;;;2.75;;
7104;SDS011;3594;42.152;24.714;2023-05-10T10:36:53;5.60;;;3.10;;
7104;SDS011;3594;42.152;24.714;2023-05-10T10:39:19;4.88;;;3.20;;
7104;SDS011;3594;42.152;24.714;2023-05-10T10:41:52;8.45;;;3.67;;
7104;SDS011;3594;42.152;24.714;2023-05-10T10:44:22;6.43;;;3.72;;
7104;SDS011;3594;42.152;24.714;2023-05-10T10:49:31;5.57;;;3.95;;
7104;SDS011;3594;42.152;24.714;2023-05-10T10:55:04;4.60;;;3.33;;
7104;SDS011;3594;42.152;24.714;2023-05-10T11:07:59;4.07;;;3.35;;
7104;SDS011;3594;42.152;24.714;2023-05-10T11:10:26;4.97;;;3.33;;
7104;SDS011;3594;42.152;24.714;2023-05-10T11:12:59;4.28;;;3.28;;
7104;SDS011;3594;42.152;24.714;2023-05-10T11:15:47;4.93;;;3.67;;
7104;SDS011;3594;42.152;24.714;2023-05-10T11:20:41;6.55;;;3.88;;
7104;SDS011;3594;42.152;24.714;2023-05-10T11:23:16;6.53;;;4.00;;
7104;SDS011;3594;42.152;24.714;2023-05-10T11:25:42;4.18;;;3.38;;
7104;SDS011;3594;42.152;24.714;2023-05-10T11:28:12;5.40;;;3.72;;
7104;SDS011;3594;42.152;24.714;2023-05-10T11:30:38;7.45;;;3.80;;
7104;SDS011;3594;42.152;24.714;2023-05-10T11:33:05;5.10;;;2.95;;
7104;SDS011;3594;42.152;24.714;2023-05-10T11:35:36;4.88;;;3.60;;
7104;SDS011;3594;42.152;24.714;2023-05-10T11:38:07;5.32;;;3.65;;
7104;SDS011;3594;42.152;24.714;2023-05-10T11:40:33;6.15;;;4.15;;
7104;SDS011;3594;42.152;24.714;2023-05-10T11:42:59;6.47;;;3.10;;
7104;SDS011;3594;42.152;24.714;2023-05-10T11:45:25;4.20;;;3.25;;
7104;SDS011;3594;42.152;24.714;2023-05-10T11:47:51;5.82;;;3.65;;
7104;SDS011;3594;42.152;24.714;2023-05-10T11:50:17;5.72;;;3.65;;
7104;SDS011;3594;42.152;24.714;2023-05-10T11:52:42;4.95;;;3.10;;
7104;SDS011;3594;42.152;24.714;2023-05-10T11:55:08;4.65;;;3.08;;
7104;SDS011;3594;42.152;24.714;2023-05-10T11:57:34;6.57;;;3.17;;
7104;SDS011;3594;42.152;24.714;2023-05-10T12:00:00;5.25;;;3.65;;
7104;SDS011;3594;42.152;24.714;2023-05-10T12:02:28;6.63;;;3.83;;
7104;SDS011;3594;42.152;24.714;2023-05-10T12:04:55;4.53;;;3.35;;
7104;SDS011;3594;42.152;24.714;2023-05-10T12:07:21;4.43;;;3.50;;
7104;SDS011;3594;42.152;24.714;2023-05-10T12:12:39;4.80;;;3.33;;
7104;SDS011;3594;42.152;24.714;2023-05-10T12:15:10;6.45;;;3.70;;
7104;SDS011;3594;42.152;24.714;2023-05-10T12:17:56;5.22;;;3.80;;
7104;SDS011;3594;42.152;24.714;2023-05-10T12:20:22;5.22;;;3.63;;
7104;SDS011;3594;42.152;24.714;2023-05-10T12:22:52;7.38;;;4.03;;
7104;SDS011;3594;42.152;24.714;2023-05-10T12:25:20;6.85;;;3.80;;
7104;SDS011;3594;42.152;24.714;2023-05-10T12:27:52;4.93;;;3.70;;
7104;SDS011;3594;42.152;24.714;2023-05-10T12:30:28;7.25;;;4.15;;
7104;SDS011;3594;42.152;24.714;2023-05-10T12:33:17;5.18;;;3.60;;
7104;SDS011;3594;42.152;24.714;2023-05-10T12:35:48;4.97;;;3.45;;
7104;SDS011;3594;42.152;24.714;2023-05-10T12:40:56;5.15;;;3.58;;
7104;SDS011;3594;42.152;24.714;2023-05-10T12:43:22;4.47;;;3.47;;
7104;SDS011;3594;42.152;24.714;2023-05-10T12:45:47;6.07;;;3.97;;
7104;SDS011;3594;42.152;24.714;2023-05-10T12:48:14;6.85;;;4.00;;
7104;SDS011;3594;42.152;24.714;2023-05-10T12:50:48;6.72;;;4.30;;
7104;SDS011;3594;42.152;24.714;2023-05-10T12:53:15;5.47;;;4.10;;
7104;SDS011;3594;42.152;24.714;2023-05-10T12:55:44;6.40;;;4.25;;
7104;SDS011;3594;42.152;24.714;2023-05-10T12:58:09;6.15;;;4.00;;
7104;SDS011;3594;42.152;24.714;2023-05-10T13:00:35;5.90;;;3.70;;
7104;SDS011;3594;42.152;24.714;2023-05-10T13:03:03;6.22;;;4.10;;
7104;SDS011;3594;42.152;24.714;2023-05-10T13:05:30;6.30;;;4.57;;
7104;SDS011;3594;42.152;24.714;2023-05-10T13:07:56;6.50;;;4.43;;
7104;SDS011;3594;42.152;24.714;2023-05-10T13:10:21;6.85;;;4.32;;
7104;SDS011;3594;42.152;24.714;2023-05-10T13:12:48;5.35;;;4.03;;
7104;SDS011;3594;42.152;24.714;2023-05-10T13:15:13;6.05;;;4.20;;
7104;SDS011;3594;42.152;24.714;2023-05-10T13:17:39;6.95;;;4.10;;
7104;SDS011;3594;42.152;24.714;2023-05-10T13:20:06;6.78;;;4.20;;
7104;SDS011;3594;42.152;24.714;2023-05-10T13:22:31;5.50;;;4.00;;
7104;SDS011;3594;42.152;24.714;2023-05-10T13:24:57;5.82;;;4.20;;
7104;SDS011;3594;42.152;24.714;2023-05-10T13:27:22;7.07;;;4.22;;
7104;SDS011;3594;42.152;24.714;2023-05-10T13:29:48;8.13;;;4.20;;
7104;SDS011;3594;42.152;24.714;2023-05-10T13:32:13;5.68;;;3.65;;
7104;SDS011;3594;42.152;24.714;2023-05-10T13:34:38;6.00;;;3.70;;
7104;SDS011;3594;42.152;24.714;2023-05-10T13:37:04;6.35;;;3.97;;
7104;SDS011;3594;42.152;24.714;2023-05-10T13:39:29;5.55;;;3.83;;
7104;SDS011;3594;42.152;24.714;2023-05-10T13:41:58;6.97;;;3.90;;
7104;SDS011;3594;42.152;24.714;2023-05-10T13:44:23;6.25;;;3.80;;
7104;SDS011;3594;42.152;24.714;2023-05-10T13:46:49;6.22;;;4.20;;
7104;SDS011;3594;42.152;24.714;2023-05-10T13:49:14;5.30;;;3.97;;
7104;SDS011;3594;42.152;24.714;2023-05-10T13:51:40;6.88;;;4.53;;
7104;SDS011;3594;42.152;24.714;2023-05-10T13:54:05;9.10;;;4.20;;
7104;SDS011;3594;42.152;24.714;2023-05-10T13:56:41;6.68;;;4.57;;
7104;SDS011;3594;42.152;24.714;2023-05-10T13:59:07;6.20;;;4.22;;
7104;SDS011;3594;42.152;24.714;2023-05-10T14:01:35;7.43;;;5.00;;
7104;SDS011;3594;42.152;24.714;2023-05-10T14:04:01;7.70;;;5.03;;
7104;SDS011;3594;42.152;24.714;2023-05-10T14:06:27;7.32;;;4.57;;
7104;SDS011;3594;42.152;24.714;2023-05-10T14:08:52;8.70;;;5.47;;
7104;SDS011;3594;42.152;24.714;2023-05-10T14:11:18;6.45;;;4.60;;
7104;SDS011;3594;42.152;24.714;2023-05-10T14:13:44;7.68;;;4.93;;
7104;SDS011;3594;42.152;24.714;2023-05-10T14:16:10;7.32;;;4.72;;
7104;SDS011;3594;42.152;24.714;2023-05-10T14:18:36;7.05;;;4.22;;
7104;SDS011;3594;42.152;24.714;2023-05-10T14:21:02;7.75;;;4.53;;
7104;SDS011;3594;42.152;24.714;2023-05-10T14:23:28;6.57;;;4.38;;
7104;SDS011;3594;42.152;24.714;2023-05-10T14:25:54;7.53;;;4.50;;
7104;SDS011;3594;42.152;24.714;2023-05-10T14:28:20;5.82;;;4.15;;
7104;SDS011;3594;42.152;24.714;2023-05-10T14:30:46;7.63;;;4.53;;
7104;SDS011;3594;42.152;24.714;2023-05-10T14:33:11;6.97;;;4.07;;
7104;SDS011;3594;42.152;24.714;2023-05-10T14:35:37;6.28;;;4.30;;
7104;SDS011;3594;42.152;24.714;2023-05-10T14:38:03;5.70;;;3.97;;
7104;SDS011;3594;42.152;24.714;2023-05-10T14:40:28;7.32;;;4.57;;
7104;SDS011;3594;42.152;24.714;2023-05-10T14:42:54;7.88;;;4.70;;
7104;SDS011;3594;42.152;24.714;2023-05-10T14:45:20;7.88;;;5.28;;
7104;SDS011;3594;42.152;24.714;2023-05-10T14:47:46;6.90;;;4.53;;
7104;SDS011;3594;42.152;24.714;2023-05-10T14:50:11;5.80;;;4.18;;
7104;SDS011;3594;42.152;24.714;2023-05-10T14:55:59;7.03;;;4.38;;
7104;SDS011;3594;42.152;24.714;2023-05-10T14:58:26;10.40;;;5.28;;
7104;SDS011;3594;42.152;24.714;2023-05-10T15:00:52;6.45;;;3.88;;
7104;SDS011;3594;42.152;24.714;2023-05-10T15:03:17;4.93;;;3.42;;
7104;SDS011;3594;42.152;24.714;2023-05-10T15:05:42;4.65;;;3.25;;
7104;SDS011;3594;42.152;24.714;2023-05-10T15:08:08;7.03;;;3.72;;
7104;SDS011;3594;42.152;24.714;2023-05-10T15:10:34;5.93;;;3.55;;
7104;SDS011;3594;42.152;24.714;2023-05-10T15:13:00;5.18;;;3.30;;
7104;SDS011;3594;42.152;24.714;2023-05-10T15:15:25;4.97;;;3.72;;
7104;SDS011;3594;42.152;24.714;2023-05-10T15:17:51;6.75;;;4.35;;
7104;SDS011;3594;42.152;24.714;2023-05-10T15:20:16;8.15;;;4.38;;
7104;SDS011;3594;42.152;24.714;2023-05-10T15:22:42;6.68;;;4.03;;
7104;SDS011;3594;42.152;24.714;2023-05-10T15:25:07;6.28;;;3.95;;
7104;SDS011;3594;42.152;24.714;2023-05-10T15:27:34;6.32;;;4.03;;
7104;SDS011;3594;42.152;24.714;2023-05-10T15:30:00;5.40;;;3.92;;
7104;SDS011;3594;42.152;24.714;2023-05-10T15:32:26;5.75;;;3.47;;
7104;SDS011;3594;42.152;24.714;2023-05-10T15:34:54;5.68;;;4.05;;
7104;SDS011;3594;42.152;24.714;2023-05-10T15:37:20;6.30;;;3.92;;
7104;SDS011;3594;42.152;24.714;2023-05-10T15:39:46;6.80;;;3.83;;
7104;SDS011;3594;42.152;24.714;2023-05-10T15:42:12;5.50;;;3.90;;
7104;SDS011;3594;42.152;24.714;2023-05-10T15:44:37;5.78;;;3.83;;
7104;SDS011;3594;42.152;24.714;2023-05-10T15:47:03;5.15;;;3.70;;
7104;SDS011;3594;42.152;24.714;2023-05-10T15:49:29;5.30;;;3.75;;
7104;SDS011;3594;42.152;24.714;2023-05-10T15:51:55;6.15;;;4.22;;